Time;durP1;ratioP1;P1;durP2;ratioP2;P2;SDS_P1;SDS_P2;PMS_P1;PMS_P2;Temp;Humidity;BMP_temperature;BMP_pressure;BME280_temperature;BME280_humidity;BME280_pressure;Samples;Min_cycle;Max_cycle;Signal;HPM_P1;HPM_P2
2023/12/23 00:00:11;;;;;;;1.42;1.23;;;;;;;5.60;53.91;93514.06;5058504;28;20197;-75
2023/12/23 00:02:41;;;;;;;1.50;1.40;;;;;;;5.62;54.09;93511.75;5041181;28;20605;-75
2023/12/23 00:05:14;;;;;;;1.80;1.50;;;;;;;5.61;54.79;93523.06;5058094;28;20190;-75
2023/12/23 00:07:45;;;;;;;1.63;1.52;;;;;;;5.59;55.00;93512.47;5056868;28;20210;-75
2023/12/23 00:10:14;;;;;;;1.70;1.60;;;;;;;5.55;55.48;93497.94;5041114;28;20190;-75
2023/12/23 00:12:45;;;;;;;1.58;1.30;;;;;;;5.50;56.43;93504.47;5058175;28;20201;-75
2023/12/23 00:15:15;;;;;;;1.50;1.40;;;;;;;5.47;56.44;93504.41;5044854;28;20245;-75
2023/12/23 00:17:50;;;;;;;1.70;1.60;;;;;;;5.35;57.37;93474.47;5059991;28;20262;-75
2023/12/23 00:20:20;;;;;;;1.65;1.40;;;;;;;5.30;57.18;93468.13;5059955;28;20239;-75
2023/12/23 00:22:47;;;;;;;1.58;1.45;;;;;;;5.29;57.36;93461.06;5059673;28;20240;-75
2023/12/23 00:25:15;;;;;;;1.77;1.67;;;;;;;5.29;57.45;93454.81;5060646;28;20250;-75
2023/12/23 00:27:44;;;;;;;1.60;1.50;;;;;;;5.28;57.86;93461.44;5060320;28;20197;-75
2023/12/23 00:30:15;;;;;;;1.38;1.27;;;;;;;5.23;57.40;93476.19;5060549;28;20193;-75
2023/12/23 00:32:50;;;;;;;1.33;1.25;;;;;;;5.26;57.39;93477.38;5059842;28;20196;-75
2023/12/23 00:35:20;;;;;;;1.40;1.30;;;;;;;5.31;57.36;93468.94;5058376;28;20647;-75
2023/12/23 00:37:51;;;;;;;1.63;1.40;;;;;;;5.35;57.24;93475.25;5059254;28;20200;-75
2023/12/23 00:40:19;;;;;;;2.15;1.60;;;;;;;5.38;56.63;93476.50;5063621;28;20228;-75
2023/12/23 00:42:48;;;;;;;1.38;1.27;;;;;;;5.38;56.13;93482.75;5063608;28;20212;-75
2023/12/23 00:45:17;;;;;;;1.55;1.30;;;;;;;5.41;55.82;93456.59;5062645;28;20544;-75
2023/12/23 00:47:46;;;;;;;1.40;1.30;;;;;;;5.44;56.10;93453.16;5063304;28;20208;-75
2023/12/23 00:50:14;;;;;;;1.23;1.10;;;;;;;5.41;55.91;93456.59;5063217;28;20254;-75
2023/12/23 00:52:41;;;;;;;1.30;1.20;;;;;;;5.40;55.79;93461.28;5064034;28;20197;-75
2023/12/23 00:55:09;;;;;;;1.20;1.10;;;;;;;5.46;55.50;93476.28;5063865;28;20197;-75
2023/12/23 00:57:40;;;;;;;1.10;1.10;;;;;;;5.50;55.82;93474.41;5081117;28;20196;-75
2023/12/23 01:00:10;;;;;;;1.08;1.08;;;;;;;5.54;55.61;93469.78;5063742;28;20266;-75
2023/12/23 01:02:37;;;;;;;1.00;1.00;;;;;;;5.58;55.65;93469.84;5063585;28;20258;-75
2023/12/23 01:05:09;;;;;;;1.15;1.05;;;;;;;5.61;54.88;93452.72;5064019;28;20207;-76
2023/12/23 01:07:36;;;;;;;1.17;1.10;;;;;;;5.63;55.06;93441.41;5063568;28;20201;-76
2023/12/23 01:10:08;;;;;;;1.15;1.10;;;;;;;5.64;55.58;93441.06;5063486;28;20628;-75
2023/12/23 01:12:38;;;;;;;1.00;1.00;;;;;;;5.66;55.33;93452.44;5063784;28;20223;-75
2023/12/23 01:15:08;;;;;;;1.00;1.00;;;;;;;5.66;55.09;93444.22;5063401;28;20244;-75
2023/12/23 01:17:35;;;;;;;1.00;1.00;;;;;;;5.69;55.36;93450.94;5062934;28;20503;-75
2023/12/23 01:20:05;;;;;;;1.00;1.00;;;;;;;5.70;55.24;93414.22;5079985;28;20181;-76
2023/12/23 01:22:40;;;;;;;0.90;0.90;;;;;;;5.72;55.21;93404.50;5078899;28;20217;-76
2023/12/23 01:25:08;;;;;;;0.90;0.90;;;;;;;5.75;55.32;93392.03;5062473;28;20256;-76
2023/12/23 01:27:35;;;;;;;0.93;0.93;;;;;;;5.76;54.63;93391.66;5061710;28;20208;-76
2023/12/23 01:30:07;;;;;;;1.30;1.20;;;;;;;5.80;54.64;93389.78;5062373;28;20204;-76
2023/12/23 01:32:34;;;;;;;1.00;1.00;;;;;;;5.83;54.42;93349.19;5079227;28;20292;-76
2023/12/23 01:35:01;;;;;;;1.23;0.98;;;;;;;5.88;54.15;93381.69;5061773;28;20204;-76
2023/12/23 01:37:28;;;;;;;0.90;0.90;;;;;;;5.91;54.46;93370.03;5062020;28;20208;-76
2023/12/23 01:39:57;;;;;;;0.90;0.90;;;;;;;5.94;54.45;93352.91;5061843;28;20205;-76
2023/12/23 01:42:26;;;;;;;1.00;1.00;;;;;;;5.96;54.68;93364.31;5062104;28;20652;-76
2023/12/23 01:44:56;;;;;;;1.00;1.00;;;;;;;5.99;54.24;93378.03;5061656;28;20201;-76
2023/12/23 01:47:23;;;;;;;1.02;1.02;;;;;;;6.02;54.35;93347.19;5062122;28;20197;-76
2023/12/23 01:49:50;;;;;;;1.25;1.15;;;;;;;6.07;54.49;93335.16;5061258;28;20209;-76
2023/12/23 01:52:22;;;;;;;0.90;0.90;;;;;;;6.09;54.03;93340.25;5061147;28;20746;-76
2023/12/23 01:54:49;;;;;;;1.27;1.10;;;;;;;6.11;54.00;93348.91;5061343;28;20296;-76
2023/12/23 01:57:20;;;;;;;1.08;0.98;;;;;;;6.12;53.81;93320.38;5061725;28;20308;-76
2023/12/23 01:59:49;;;;;;;1.20;1.10;;;;;;;6.14;53.97;93331.75;5061265;28;20209;-76
2023/12/23 02:02:19;;;;;;;0.95;0.85;;;;;;;6.18;53.71;93327.13;5061455;28;20217;-76
2023/12/23 02:04:47;;;;;;;0.80;0.80;;;;;;;6.20;53.62;93278.25;5060844;28;20207;-76
2023/12/23 02:07:14;;;;;;;1.13;1.13;;;;;;;6.22;53.71;93320.53;5061122;28;20205;-76
2023/12/23 02:09:41;;;;;;;0.98;0.98;;;;;;;6.24;53.45;93303.72;5061803;28;20189;-76
2023/12/23 02:12:16;;;;;;;0.88;0.88;;;;;;;6.20;53.92;93284.50;5061250;28;20205;-76
2023/12/23 02:14:53;;;;;;;1.08;1.08;;;;;;;6.20;53.88;93294.69;5060500;28;20208;-76
2023/12/23 02:17:22;;;;;;;1.30;1.20;;;;;;;6.26;53.35;93310.44;5080654;28;20257;-76
2023/12/23 02:19:52;;;;;;;1.25;1.10;;;;;;;6.31;54.03;93330.44;5098446;28;20259;-76
2023/12/23 02:22:25;;;;;;;1.08;0.98;;;;;;;6.29;54.00;93310.88;5080380;28;20269;-76
2023/12/23 02:24:52;;;;;;;1.15;1.15;;;;;;;6.27;53.42;93312.00;5081209;28;20196;-76
2023/12/23 02:27:27;;;;;;;1.20;1.02;;;;;;;6.30;53.67;93317.91;5080639;28;20214;-76
2023/12/23 02:29:56;;;;;;;1.58;1.10;;;;;;;6.35;53.33;93298.41;5080645;28;20616;-76
2023/12/23 02:32:23;;;;;;;1.10;1.00;;;;;;;6.38;53.49;93271.09;5080304;28;20189;-76
2023/12/23 02:34:54;;;;;;;1.20;1.10;;;;;;;6.41;53.09;93281.31;5080910;28;20204;-76
2023/12/23 02:37:23;;;;;;;1.10;1.00;;;;;;;6.42;53.20;93262.91;5080832;28;20196;-76
2023/12/23 02:39:51;;;;;;;1.30;1.20;;;;;;;6.44;52.66;93269.63;5080541;28;20628;-76
2023/12/23 02:42:18;;;;;;;0.90;0.90;;;;;;;6.45;52.25;93259.44;5079957;28;20211;-76
2023/12/23 02:44:46;;;;;;;2.15;1.10;;;;;;;6.49;52.62;93273.97;5080166;28;20192;-76
2023/12/23 02:47:16;;;;;;;1.40;1.30;;;;;;;6.50;52.28;93239.97;5080829;28;20192;-76
2023/12/23 02:49:43;;;;;;;1.10;1.00;;;;;;;6.57;52.07;93261.94;5080315;28;20196;-76
2023/12/23 02:52:10;;;;;;;0.93;0.93;;;;;;;6.61;52.12;93257.31;5080235;28;20196;-76
2023/12/23 02:54:38;;;;;;;1.00;1.00;;;;;;;6.65;51.79;93251.91;5079757;28;20208;-76
2023/12/23 02:57:06;;;;;;;1.73;1.10;;;;;;;6.67;51.40;93268.72;5079824;28;20204;-76
2023/12/23 02:59:33;;;;;;;0.88;0.88;;;;;;;6.69;51.38;93239.81;5080620;28;20188;-76
2023/12/23 03:02:04;;;;;;;1.10;1.00;;;;;;;6.70;50.95;93266.03;5079996;28;20278;-76
2023/12/23 03:04:33;;;;;;;1.13;1.02;;;;;;;6.74;50.72;93261.38;5079813;28;20192;-76
2023/12/23 03:07:00;;;;;;;1.27;0.93;;;;;;;6.78;50.54;93277.09;5080295;28;20307;-76
2023/12/23 03:09:28;;;;;;;1.00;1.00;;;;;;;6.81;50.65;93311.97;5080017;28;20597;-76
2023/12/23 03:11:59;;;;;;;1.27;1.17;;;;;;;6.83;50.23;93290.47;5079854;28;20189;-76
2023/12/23 03:14:26;;;;;;;1.20;1.10;;;;;;;6.83;50.65;93304.97;5079479;28;20202;-76
2023/12/23 03:16:53;;;;;;;1.08;1.08;;;;;;;6.86;49.97;93290.53;5060412;28;20256;-76
2023/12/23 03:19:21;;;;;;;2.17;1.10;;;;;;;6.91;50.34;93303.09;5059924;28;20197;-76
2023/12/23 03:21:49;;;;;;;1.00;1.00;;;;;;;6.93;49.92;93311.72;5060277;28;20213;-76
2023/12/23 03:24:16;;;;;;;1.10;1.10;;;;;;;6.95;49.68;93326.66;5059625;28;20189;-76
2023/12/23 03:26:43;;;;;;;1.20;1.10;;;;;;;6.97;49.58;93309.81;5059973;28;20218;-76
2023/12/23 03:29:14;;;;;;;1.23;1.13;;;;;;;6.98;49.87;93309.47;5059981;28;20200;-76
2023/12/23 03:31:41;;;;;;;1.10;1.10;;;;;;;6.96;49.92;93292.59;5059422;28;20228;-76
2023/12/23 03:34:08;;;;;;;1.15;1.15;;;;;;;6.95;49.72;93295.72;5060057;28;20204;-76
2023/12/23 03:36:35;;;;;;;1.60;1.00;;;;;;;6.91;49.66;93305.84;5077525;28;20200;-76
2023/12/23 03:39:03;;;;;;;1.17;1.08;;;;;;;6.90;49.79;93279.56;5059944;28;20208;-76
2023/12/23 03:41:31;;;;;;;1.10;1.00;;;;;;;6.91;49.56;93290.19;5059873;28;20193;-76
2023/12/23 03:43:58;;;;;;;1.02;1.02;;;;;;;6.91;49.83;93292.16;5059287;28;20227;-76
2023/12/23 03:46:29;;;;;;;1.25;1.15;;;;;;;6.91;49.34;93298.41;5059601;28;20196;-76
2023/12/23 03:48:56;;;;;;;1.08;1.00;;;;;;;6.95;49.26;93271.81;5059008;28;20208;-76
2023/12/23 03:51:27;;;;;;;0.98;0.98;;;;;;;6.98;49.01;93290.28;5059224;28;20209;-76
2023/12/23 03:53:57;;;;;;;1.20;1.10;;;;;;;7.09;48.71;93270.44;5058936;28;20239;-76
2023/12/23 03:56:25;;;;;;;1.33;1.00;;;;;;;7.15;48.56;93257.94;5059047;28;20205;-76
2023/12/23 03:58:53;;;;;;;1.10;1.00;;;;;;;7.18;48.34;93271.69;5058412;28;20212;-76
2023/12/23 04:01:21;;;;;;;1.50;1.00;;;;;;;7.17;48.01;93267.38;5058817;28;20217;-76
2023/12/23 04:03:55;;;;;;;1.67;1.30;;;;;;;7.22;47.96;93256.06;5058919;28;20193;-76
2023/12/23 04:06:22;;;;;;;1.30;1.10;;;;;;;7.24;48.26;93245.53;5058816;28;20208;-76
2023/12/23 04:08:51;;;;;;;1.00;1.00;;;;;;;7.28;47.53;93226.34;5059295;28;20208;-76
2023/12/23 04:11:18;;;;;;;1.00;1.00;;;;;;;7.28;47.82;93237.34;5058905;28;20215;-76
2023/12/23 04:13:49;;;;;;;0.98;0.98;;;;;;;7.28;47.90;93240.06;5058330;28;20197;-76
2023/12/23 04:16:16;;;;;;;0.90;0.90;;;;;;;7.24;47.88;93253.75;5056490;28;20232;-76
2023/12/23 04:18:43;;;;;;;1.55;1.10;;;;;;;7.18;48.08;93249.75;5057980;28;20193;-76
2023/12/23 04:21:12;;;;;;;1.27;1.25;;;;;;;7.16;48.13;93278.72;5058307;28;20193;-76
2023/12/23 04:23:39;;;;;;;1.75;1.00;;;;;;;7.17;48.24;93286.56;5058266;28;20217;-76
2023/12/23 04:26:08;;;;;;;1.45;1.35;;;;;;;7.20;48.30;93315.19;5076159;28;20184;-76
2023/12/23 04:28:35;;;;;;;1.30;1.20;;;;;;;7.26;47.69;93304.69;5058549;28;20246;-76
2023/12/23 04:31:04;;;;;;;1.02;1.02;;;;;;;7.34;46.96;93240.53;5058484;28;20613;-76
2023/12/23 04:33:34;;;;;;;1.20;1.10;;;;;;;7.51;46.65;93241.84;5058604;28;20205;-76
2023/12/23 04:36:03;;;;;;;1.40;1.30;;;;;;;7.55;46.66;93256.38;5058038;28;20207;-76
2023/12/23 04:38:39;;;;;;;1.40;1.30;;;;;;;7.58;46.91;93258.38;5075977;28;20208;-76
2023/12/23 04:41:06;;;;;;;1.25;1.20;;;;;;;7.52;47.35;93266.19;5075655;28;20224;-76
2023/12/23 04:43:35;;;;;;;1.30;1.20;;;;;;;7.48;47.17;93271.63;5058464;28;20312;-76
2023/12/23 04:46:06;;;;;;;1.33;1.20;;;;;;;7.49;47.17;93247.72;5058826;28;20255;-76
2023/12/23 04:48:33;;;;;;;1.10;1.00;;;;;;;7.54;46.94;93276.75;5058751;28;20201;-76
2023/12/23 04:51:01;;;;;;;1.83;0.93;;;;;;;7.69;45.99;93276.50;5058393;28;20266;-76
2023/12/23 04:53:28;;;;;;;1.13;1.02;;;;;;;7.79;46.35;93250.34;5057459;28;20251;-76
2023/12/23 04:56:01;;;;;;;1.20;1.10;;;;;;;7.75;46.03;93260.50;5058048;28;20197;-76
2023/12/23 04:58:30;;;;;;;1.08;1.08;;;;;;;7.71;46.60;93265.97;5057945;28;20193;-76
2023/12/23 05:00:57;;;;;;;1.08;1.08;;;;;;;7.71;46.00;93289.88;5058370;28;20205;-76
2023/12/23 05:03:26;;;;;;;1.35;1.27;;;;;;;7.74;46.33;93308.34;5057867;28;20656;-76
2023/12/23 05:05:53;;;;;;;1.30;1.20;;;;;;;7.79;46.04;93329.16;5057536;28;20287;-76
2023/12/23 05:08:22;;;;;;;1.30;1.20;;;;;;;7.80;46.26;93342.47;5058564;28;20215;-76
2023/12/23 05:10:49;;;;;;;1.58;1.20;;;;;;;7.79;46.16;93345.63;5058071;28;20197;-76
2023/12/23 05:13:18;;;;;;;1.75;1.20;;;;;;;7.72;46.62;93311.44;5057556;28;20201;-76
2023/12/23 05:15:48;;;;;;;1.00;1.00;;;;;;;7.74;46.44;93322.06;5057425;28;20239;-76
2023/12/23 05:18:16;;;;;;;1.13;1.10;;;;;;;7.78;46.07;93320.13;5075397;28;20234;-76
2023/12/23 05:20:43;;;;;;;1.38;1.27;;;;;;;7.76;46.42;93344.41;5074326;28;20272;-76
2023/12/23 05:23:10;;;;;;;1.27;1.20;;;;;;;7.74;46.63;93356.94;5058145;28;20213;-76
2023/12/23 05:25:38;;;;;;;1.58;1.38;;;;;;;7.71;46.68;93353.00;5060267;28;20201;-76
2023/12/23 05:28:05;;;;;;;1.30;1.20;;;;;;;7.69;46.92;93364.31;5078724;28;20182;-76
2023/12/23 05:30:37;;;;;;;1.23;1.23;;;;;;;7.68;46.98;93349.03;5061976;28;20201;-76
2023/12/23 05:33:04;;;;;;;1.42;1.30;;;;;;;7.68;47.29;93359.22;5061167;28;20236;-76
2023/12/23 05:35:31;;;;;;;1.25;1.15;;;;;;;7.66;47.15;93336.84;5077696;28;20246;-76
2023/12/23 05:37:59;;;;;;;1.25;1.15;;;;;;;7.64;47.35;93339.19;5061218;28;20201;-77
2023/12/23 05:40:26;;;;;;;2.15;1.35;;;;;;;7.62;47.53;93375.22;5060940;28;20197;-77
2023/12/23 05:42:53;;;;;;;1.30;1.20;;;;;;;7.62;47.86;93317.59;5061369;28;20224;-77
2023/12/23 05:45:21;;;;;;;1.23;1.20;;;;;;;7.57;47.72;93353.63;5061606;28;20205;-77
2023/12/23 05:47:50;;;;;;;1.58;1.20;;;;;;;7.55;47.94;93331.25;5077474;28;20200;-77
2023/12/23 05:50:17;;;;;;;1.20;1.20;;;;;;;7.57;47.94;93339.91;5060757;28;20205;-76
2023/12/23 05:52:45;;;;;;;1.98;1.52;;;;;;;7.57;48.02;93334.41;5060998;28;20193;-76
2023/12/23 05:55:12;;;;;;;2.53;1.80;;;;;;;7.56;48.31;93351.25;5078374;28;20255;-76
2023/12/23 05:57:41;;;;;;;1.95;1.67;;;;;;;7.56;48.09;93332.06;5078353;28;20270;-76
2023/12/23 06:00:09;;;;;;;1.50;1.40;;;;;;;7.57;48.28;93345.38;5060541;28;20209;-76
2023/12/23 06:02:36;;;;;;;1.60;1.50;;;;;;;7.59;48.31;93355.97;5062086;28;20345;-76
2023/12/23 06:05:08;;;;;;;1.40;1.30;;;;;;;7.58;48.48;93363.41;5061171;28;20185;-76
2023/12/23 06:07:36;;;;;;;1.60;1.50;;;;;;;7.56;48.56;93364.97;5060513;28;20592;-76
2023/12/23 06:10:04;;;;;;;1.33;1.30;;;;;;;7.54;48.40;93364.56;5060909;28;20208;-76
2023/12/23 06:12:31;;;;;;;1.60;1.50;;;;;;;7.52;48.54;93351.22;5077129;28;20239;-76
2023/12/23 06:14:58;;;;;;;1.88;1.75;;;;;;;7.52;48.69;93378.66;5075346;28;20311;-76
2023/12/23 06:17:26;;;;;;;2.15;1.50;;;;;;;7.51;48.88;93385.28;5060300;28;20565;-77
2023/12/23 06:19:55;;;;;;;2.05;1.92;;;;;;;7.47;49.13;93373.50;5059673;28;20265;-77
2023/12/23 06:22:25;;;;;;;1.50;1.30;;;;;;;7.47;48.98;93376.22;5077089;28;20536;-77
2023/12/23 06:24:54;;;;;;;1.80;1.70;;;;;;;7.50;49.48;93380.97;5059965;28;20559;-77
2023/12/23 06:27:21;;;;;;;1.60;1.50;;;;;;;7.52;49.40;93375.91;5060178;28;20205;-77
2023/12/23 06:29:48;;;;;;;1.70;1.60;;;;;;;7.52;49.40;93389.63;5059502;28;20546;-77
2023/12/23 06:32:17;;;;;;;1.60;1.50;;;;;;;7.51;49.67;93396.25;5059612;28;20197;-77
2023/12/23 06:34:44;;;;;;;1.60;1.50;;;;;;;7.52;49.95;93384.16;5059551;28;20197;-77
2023/12/23 06:37:12;;;;;;;1.55;1.45;;;;;;;7.50;49.99;93371.97;5076083;28;20204;-77
2023/12/23 06:39:40;;;;;;;1.60;1.50;;;;;;;7.51;49.90;93357.84;5060313;28;20193;-77
2023/12/23 06:42:11;;;;;;;1.83;1.70;;;;;;;7.53;50.08;93354.75;5060006;28;20200;-77
2023/12/23 06:44:38;;;;;;;1.77;1.67;;;;;;;7.52;50.00;93355.94;5059253;28;20655;-77
2023/12/23 06:47:07;;;;;;;1.88;1.77;;;;;;;7.54;50.12;93356.31;5059663;28;20525;-77
2023/12/23 06:49:34;;;;;;;2.03;1.70;;;;;;;7.55;50.31;93388.06;5077137;28;20195;-77
2023/12/23 06:52:05;;;;;;;2.50;1.73;;;;;;;7.55;50.23;93401.78;5076566;28;20251;-77
2023/12/23 06:54:33;;;;;;;1.92;1.73;;;;;;;7.58;50.60;93387.31;5059363;28;20315;-77
2023/12/23 06:57:04;;;;;;;1.92;1.75;;;;;;;7.62;50.57;93391.69;5076136;28;20197;-77
2023/12/23 06:59:34;;;;;;;2.00;1.88;;;;;;;7.67;50.39;93394.13;5059279;28;20201;-77
2023/12/23 07:02:04;;;;;;;2.10;1.90;;;;;;;7.67;50.60;93394.13;5057865;28;20264;-77
2023/12/23 07:04:32;;;;;;;2.72;1.80;;;;;;;7.68;50.77;93386.66;5075588;28;20518;-77
2023/12/23 07:07:01;;;;;;;1.80;1.67;;;;;;;7.71;50.73;93408.66;5059443;28;20279;-77
2023/12/23 07:09:30;;;;;;;1.60;1.50;;;;;;;7.71;50.57;93424.34;5058630;28;20243;-77
2023/12/23 07:12:00;;;;;;;1.50;1.40;;;;;;;7.74;50.60;93423.59;5059310;28;20598;-77
2023/12/23 07:14:29;;;;;;;2.15;1.95;;;;;;;7.76;50.92;93414.97;5059095;28;20284;-77
2023/12/23 07:16:56;;;;;;;1.73;1.63;;;;;;;7.78;51.14;93429.13;5074619;28;20247;-77
2023/12/23 07:19:23;;;;;;;1.60;1.50;;;;;;;7.79;50.87;93398.53;5058672;28;20208;-77
2023/12/23 07:21:53;;;;;;;1.63;1.52;;;;;;;7.78;51.00;93412.66;5058416;28;20192;-77
2023/12/23 07:24:20;;;;;;;2.25;2.05;;;;;;;7.77;50.94;93416.53;5058552;28;20659;-77
2023/12/23 07:26:47;;;;;;;1.90;1.80;;;;;;;7.78;51.06;93415.41;5059049;28;20271;-77
2023/12/23 07:29:15;;;;;;;2.00;1.80;;;;;;;7.86;51.07;93439.00;5059104;28;20209;-77
2023/12/23 07:31:46;;;;;;;2.22;1.90;;;;;;;7.93;50.79;93439.88;5058807;28;20238;-77
2023/12/23 07:34:15;;;;;;;2.13;1.90;;;;;;;7.97;51.06;93442.66;5058324;28;20259;-78
2023/12/23 07:36:43;;;;;;;1.90;1.77;;;;;;;8.02;50.98;93445.06;5075587;28;20205;-78
2023/12/23 07:39:11;;;;;;;2.50;1.92;;;;;;;8.10;51.05;93444.00;5058457;28;20223;-78
2023/12/23 07:41:39;;;;;;;2.70;2.03;;;;;;;8.16;50.92;93464.44;5058969;28;20200;-77
2023/12/23 07:44:06;;;;;;;2.38;1.90;;;;;;;8.22;50.88;93475.09;5058716;28;20224;-77
2023/12/23 07:46:34;;;;;;;2.50;1.92;;;;;;;8.31;50.65;93462.63;5058079;28;20204;-77
2023/12/23 07:49:04;;;;;;;1.90;1.80;;;;;;;8.35;50.76;93443.41;5057811;28;20205;-77
2023/12/23 07:51:34;;;;;;;2.22;2.00;;;;;;;8.39;50.52;93460.78;5058269;28;20189;-77
2023/12/23 07:54:01;;;;;;;2.03;1.80;;;;;;;8.42;50.58;93480.06;5057925;28;20532;-77
2023/12/23 07:56:29;;;;;;;2.22;2.03;;;;;;;8.47;50.58;93476.16;5058072;28;20197;-77
2023/12/23 07:58:58;;;;;;;1.90;1.80;;;;;;;8.64;50.54;93478.28;5058209;28;20227;-77
2023/12/23 08:01:27;;;;;;;2.55;1.90;;;;;;;8.76;50.01;93468.97;5058531;28;20240;-77
2023/12/23 08:03:55;;;;;;;1.90;1.67;;;;;;;8.71;50.18;93482.25;5057990;28;20220;-77
2023/12/23 08:06:24;;;;;;;1.80;1.70;;;;;;;8.67;50.38;93496.75;5058553;28;20197;-77
2023/12/23 08:08:51;;;;;;;2.20;2.00;;;;;;;8.80;50.24;93516.50;5058040;28;20216;-77
2023/12/23 08:11:22;;;;;;;2.20;1.70;;;;;;;8.95;50.17;93511.13;5058302;28;20205;-77
2023/12/23 08:13:51;;;;;;;1.83;1.73;;;;;;;9.08;49.75;93502.22;5058495;28;20304;-77
2023/12/23 08:16:20;;;;;;;1.83;1.73;;;;;;;9.22;49.68;93496.00;5055943;28;20682;-77
2023/12/23 08:18:47;;;;;;;2.40;1.77;;;;;;;9.33;49.25;93504.34;5058331;28;20266;-77
2023/12/23 08:21:15;;;;;;;2.58;2.20;;;;;;;9.38;49.02;93531.50;5058341;28;20201;-77
2023/12/23 08:23:44;;;;;;;3.05;2.03;;;;;;;9.46;48.97;93560.66;5058485;28;20231;-77
2023/12/23 08:26:14;;;;;;;2.00;1.80;;;;;;;9.41;48.90;93530.75;5057755;28;20605;-77
2023/12/23 08:28:46;;;;;;;2.55;2.00;;;;;;;9.33;49.25;93560.19;5057833;28;20261;-77
2023/12/23 08:31:14;;;;;;;2.20;1.88;;;;;;;9.23;49.26;93582.09;5058202;28;20200;-77
2023/12/23 08:33:41;;;;;;;3.25;2.47;;;;;;;9.13;49.66;93583.56;5057576;28;20232;-77
2023/12/23 08:36:09;;;;;;;2.63;2.20;;;;;;;9.08;49.84;93633.44;5057519;28;20208;-77
2023/12/23 08:38:36;;;;;;;2.85;2.60;;;;;;;9.00;49.80;93651.81;5057529;28;20225;-77
2023/12/23 08:41:06;;;;;;;2.17;1.90;;;;;;;8.91;50.48;93637.59;5057439;28;20203;-77
2023/12/23 08:43:33;;;;;;;3.50;2.72;;;;;;;8.89;50.83;93667.41;5057769;28;20220;-77
2023/12/23 08:46:00;;;;;;;4.32;2.42;;;;;;;8.87;51.49;93631.25;5057993;28;20580;-77
2023/12/23 08:48:27;;;;;;;3.65;3.00;;;;;;;8.82;52.33;93637.09;5058015;28;20197;-77
2023/12/23 08:50:56;;;;;;;5.05;3.25;;;;;;;8.81;53.05;93666.53;5057632;28;20204;-77
2023/12/23 08:53:25;;;;;;;4.30;2.60;;;;;;;8.79;54.40;93663.38;5057397;28;20204;-77
2023/12/23 08:55:53;;;;;;;3.58;2.90;;;;;;;8.70;55.52;93659.34;5058441;28;20189;-77
2023/12/23 08:58:24;;;;;;;3.03;2.75;;;;;;;8.60;55.67;93705.56;5073937;28;20193;-77
2023/12/23 09:00:54;;;;;;;2.53;2.33;;;;;;;8.58;56.48;93707.09;5061726;28;20205;-77
2023/12/23 09:03:25;;;;;;;2.75;2.40;;;;;;;8.56;57.23;93731.41;5062260;28;20286;-77
2023/12/23 09:05:52;;;;;;;2.88;2.58;;;;;;;8.44;58.07;93716.75;5062077;28;20208;-77
2023/12/23 09:08:21;;;;;;;3.00;2.80;;;;;;;8.37;58.93;93730.38;5061222;28;20197;-77
2023/12/23 09:10:49;;;;;;;3.47;2.95;;;;;;;8.25;59.73;93708.59;5062363;28;20185;-77
2023/12/23 09:13:16;;;;;;;4.18;3.15;;;;;;;8.22;60.50;93695.59;5061952;28;20211;-77
2023/12/23 09:15:44;;;;;;;3.20;2.90;;;;;;;8.19;60.73;93708.13;5062177;28;20236;-77
2023/12/23 09:18:11;;;;;;;3.03;2.70;;;;;;;8.11;61.53;93719.38;5062437;28;20185;-77
2023/12/23 09:20:40;;;;;;;2.65;2.45;;;;;;;8.02;61.34;93716.09;5061650;28;20197;-77
2023/12/23 09:23:07;;;;;;;3.08;2.80;;;;;;;7.95;61.41;93717.59;5062094;28;20205;-77
2023/12/23 09:25:36;;;;;;;3.05;2.55;;;;;;;7.96;61.42;93743.88;5061951;28;20270;-77
2023/12/23 09:28:05;;;;;;;2.40;2.20;;;;;;;7.98;61.07;93765.47;5080141;28;20216;-77
2023/12/23 09:30:34;;;;;;;3.25;2.13;;;;;;;7.94;60.86;93765.41;5061972;28;20262;-77
2023/12/23 09:33:05;;;;;;;2.53;2.00;;;;;;;7.79;61.56;93751.81;5062489;28;20204;-76
2023/12/23 09:35:35;;;;;;;2.75;1.83;;;;;;;7.68;61.22;93757.94;5062471;28;20224;-77
2023/12/23 09:38:06;;;;;;;1.90;1.80;;;;;;;7.58;61.52;93763.22;5062165;28;20255;-76
2023/12/23 09:40:34;;;;;;;1.90;1.80;;;;;;;7.55;61.62;93772.19;5062221;28;20307;-77
2023/12/23 09:43:01;;;;;;;1.92;1.80;;;;;;;7.51;61.98;93794.06;5062234;28;20189;-77
2023/12/23 09:45:30;;;;;;;1.70;1.60;;;;;;;7.44;61.98;93818.63;5061693;28;20231;-77
2023/12/23 09:47:58;;;;;;;1.83;1.73;;;;;;;7.29;62.53;93864.19;5061439;28;20216;-77
2023/12/23 09:50:27;;;;;;;1.90;1.80;;;;;;;7.08;64.72;93839.91;5061226;28;20201;-77
2023/12/23 09:52:58;;;;;;;1.85;1.70;;;;;;;7.00;64.95;93835.41;5061133;28;20194;-77
2023/12/23 09:55:27;;;;;;;1.70;1.60;;;;;;;6.71;66.94;93845.75;5061380;28;20543;-77
2023/12/23 09:57:55;;;;;;;2.13;1.92;;;;;;;6.64;68.16;93848.31;5061571;28;20213;-77
2023/12/23 10:00:23;;;;;;;1.88;1.77;;;;;;;6.67;68.05;93872.28;5060983;28;20204;-77
2023/12/23 10:02:51;;;;;;;1.90;1.75;;;;;;;6.67;68.88;93877.75;5061281;28;20201;-77
2023/12/23 10:05:21;;;;;;;1.80;1.70;;;;;;;6.62;69.20;93869.03;5060465;28;20213;-77
2023/12/23 10:07:52;;;;;;;1.85;1.75;;;;;;;6.61;69.50;93865.50;5060472;28;20216;-78
2023/12/23 10:10:21;;;;;;;1.50;1.40;;;;;;;6.60;69.63;93860.38;5059645;28;20185;-78
2023/12/23 10:12:48;;;;;;;1.70;1.60;;;;;;;6.57;69.60;93866.56;5060086;28;20229;-78
2023/12/23 10:15:17;;;;;;;1.80;1.70;;;;;;;6.69;69.91;93913.81;5057741;28;20225;-78
2023/12/23 10:17:51;;;;;;;1.90;1.80;;;;;;;6.70;70.07;93926.38;5060178;28;20201;-77
2023/12/23 10:20:18;;;;;;;2.40;2.20;;;;;;;6.67;69.70;93913.38;5059796;28;20193;-77
2023/12/23 10:22:46;;;;;;;2.03;1.92;;;;;;;6.62;69.67;93930.09;5060345;28;20228;-77
2023/12/23 10:25:19;;;;;;;1.90;1.80;;;;;;;6.52;69.65;93927.91;5059841;28;20216;-77
2023/12/23 10:27:48;;;;;;;2.20;2.00;;;;;;;6.48;69.22;93932.50;5059709;28;20197;-77
2023/12/23 10:30:17;;;;;;;1.90;1.80;;;;;;;6.44;68.66;93948.06;5059884;28;20197;-77
2023/12/23 10:32:47;;;;;;;2.00;1.90;;;;;;;6.41;69.05;93932.31;5059828;28;20232;-77
2023/12/23 10:35:15;;;;;;;1.60;1.50;;;;;;;6.35;68.23;93926.31;5059650;28;20636;-77
2023/12/23 10:37:44;;;;;;;2.45;2.25;;;;;;;6.35;68.32;93948.22;5077026;28;20181;-77
2023/12/23 10:40:14;;;;;;;1.80;1.70;;;;;;;6.30;68.51;93943.00;5059552;28;20197;-77
2023/12/23 10:42:43;;;;;;;2.00;1.90;;;;;;;6.32;68.60;93956.34;5059566;28;20192;-77
2023/12/23 10:45:12;;;;;;;1.63;1.52;;;;;;;6.30;68.60;93953.19;5059969;28;20331;-77
2023/12/23 10:47:40;;;;;;;1.42;1.33;;;;;;;6.21;69.02;93969.78;5059800;28;20208;-77
2023/12/23 10:50:13;;;;;;;1.90;1.80;;;;;;;6.09;69.66;93981.59;5059753;28;20205;-77
2023/12/23 10:52:41;;;;;;;1.50;1.40;;;;;;;6.06;69.84;93974.06;5059288;28;20204;-77
2023/12/23 10:55:13;;;;;;;1.83;1.73;;;;;;;6.05;69.80;93963.47;5076744;28;20209;-77
2023/12/23 10:57:41;;;;;;;1.90;1.80;;;;;;;6.10;69.71;93983.19;5059410;28;20229;-77
2023/12/23 11:00:15;;;;;;;1.63;1.52;;;;;;;6.17;69.43;93979.81;5059350;28;20258;-76
2023/12/23 11:02:43;;;;;;;1.67;1.58;;;;;;;6.25;69.63;93971.47;5059492;28;20252;-77
2023/12/23 11:05:13;;;;;;;1.90;1.80;;;;;;;6.30;69.53;93972.34;5059861;28;20229;-77
2023/12/23 11:07:47;;;;;;;2.03;1.92;;;;;;;6.30;69.28;93962.19;5058614;28;20300;-77
2023/12/23 11:10:15;;;;;;;1.90;1.80;;;;;;;6.32;69.24;93964.56;5058768;28;20204;-77
2023/12/23 11:12:43;;;;;;;2.20;2.00;;;;;;;6.32;69.14;93957.16;5059340;28;20185;-77
2023/12/23 11:15:11;;;;;;;2.00;1.90;;;;;;;6.37;69.10;93961.56;5063283;28;20232;-77
2023/12/23 11:17:44;;;;;;;1.70;1.60;;;;;;;6.45;69.15;93957.84;5079644;28;20184;-77
2023/12/23 11:20:44;;;;;;;1.73;1.63;;;;;;;6.50;69.03;93965.81;5078757;28;20208;-77
2023/12/23 11:23:35;;;;;;;1.65;1.55;;;;;;;6.48;68.51;93963.41;5077520;28;20196;-77
2023/12/23 11:26:06;;;;;;;1.80;1.70;;;;;;;6.51;68.33;93962.72;5078977;28;20290;-77
2023/12/23 11:28:37;;;;;;;1.75;1.65;;;;;;;6.53;67.87;93961.56;5078915;28;20253;-77
2023/12/23 11:31:06;;;;;;;4.32;4.03;;;;;;;6.48;67.29;93946.19;5079052;28;20196;-76
2023/12/23 11:33:36;;;;;;;1.80;1.70;;;;;;;6.43;67.39;93947.25;5077738;28;20243;-76
2023/12/23 11:36:03;;;;;;;1.88;1.77;;;;;;;6.45;67.12;93958.66;5096000;28;20188;-76
2023/12/23 11:38:46;;;;;;;2.00;1.90;;;;;;;6.40;66.50;93941.69;5078225;28;20200;-77
2023/12/23 11:41:16;;;;;;;1.80;1.70;;;;;;;6.36;67.24;93936.13;5078017;28;20197;-77
2023/12/23 11:43:45;;;;;;;1.73;1.63;;;;;;;6.41;67.01;93921.38;5078755;28;20531;-77
2023/12/23 11:46:13;;;;;;;1.73;1.63;;;;;;;6.43;66.87;93914.41;5078562;28;20269;-77
2023/12/23 11:48:43;;;;;;;1.67;1.58;;;;;;;6.46;66.91;93918.34;5078067;28;20200;-77